sensor_id;sensor_type;location;lat;lon;timestamp;temperature;humidity
25716;DHT22;13573;50.936;4.328;2022-07-10T00:00:42;15.20;99.90
25716;DHT22;13573;50.936;4.328;2022-07-10T00:03:09;14.40;99.90
25716;DHT22;13573;50.936;4.328;2022-07-10T00:08:03;14.80;99.90
25716;DHT22;13573;50.936;4.328;2022-07-10T00:10:29;15.00;99.90
25716;DHT22;13573;50.936;4.328;2022-07-10T00:12:56;14.90;99.90
25716;DHT22;13573;50.936;4.328;2022-07-10T00:15:23;14.70;99.90
25716;DHT22;13573;50.936;4.328;2022-07-10T00:17:50;14.50;99.90
25716;DHT22;13573;50.936;4.328;2022-07-10T00:20:17;13.70;99.90
25716;DHT22;13573;50.936;4.328;2022-07-10T00:22:43;14.10;99.90
25716;DHT22;13573;50.936;4.328;2022-07-10T00:25:12;14.20;99.90
25716;DHT22;13573;50.936;4.328;2022-07-10T00:27:39;16.00;99.90
25716;DHT22;13573;50.936;4.328;2022-07-10T00:32:40;15.00;99.90
25716;DHT22;13573;50.936;4.328;2022-07-10T00:35:07;14.80;99.90
25716;DHT22;13573;50.936;4.328;2022-07-10T00:37:35;14.60;99.90
25716;DHT22;13573;50.936;4.328;2022-07-10T00:40:03;14.90;99.90
25716;DHT22;13573;50.936;4.328;2022-07-10T00:42:30;15.00;99.90
25716;DHT22;13573;50.936;4.328;2022-07-10T00:44:57;15.00;99.90
25716;DHT22;13573;50.936;4.328;2022-07-10T00:47:24;15.10;99.90
25716;DHT22;13573;50.936;4.328;2022-07-10T00:49:50;15.10;99.90
25716;DHT22;13573;50.936;4.328;2022-07-10T00:52:18;15.00;99.90
25716;DHT22;13573;50.936;4.328;2022-07-10T00:54:48;15.40;99.90
25716;DHT22;13573;50.936;4.328;2022-07-10T00:57:17;14.70;99.90
25716;DHT22;13573;50.936;4.328;2022-07-10T00:59:45;14.80;99.90
25716;DHT22;13573;50.936;4.328;2022-07-10T01:02:13;14.20;99.90
25716;DHT22;13573;50.936;4.328;2022-07-10T01:07:06;14.50;99.90
25716;DHT22;13573;50.936;4.328;2022-07-10T01:09:34;14.30;99.90
25716;DHT22;13573;50.936;4.328;2022-07-10T01:12:01;14.30;99.90
25716;DHT22;13573;50.936;4.328;2022-07-10T01:14:30;14.30;99.90
25716;DHT22;13573;50.936;4.328;2022-07-10T01:16:58;14.10;99.90
25716;DHT22;13573;50.936;4.328;2022-07-10T01:19:25;13.70;99.90
25716;DHT22;13573;50.936;4.328;2022-07-10T01:21:52;13.70;99.90
25716;DHT22;13573;50.936;4.328;2022-07-10T01:24:19;14.10;99.90
25716;DHT22;13573;50.936;4.328;2022-07-10T01:26:45;14.10;99.90
25716;DHT22;13573;50.936;4.328;2022-07-10T01:29:12;14.10;99.90
25716;DHT22;13573;50.936;4.328;2022-07-10T01:31:39;13.50;99.90
25716;DHT22;13573;50.936;4.328;2022-07-10T01:34:07;14.40;99.90
25716;DHT22;13573;50.936;4.328;2022-07-10T01:36:36;14.00;99.90
25716;DHT22;13573;50.936;4.328;2022-07-10T01:39:04;13.90;99.90
25716;DHT22;13573;50.936;4.328;2022-07-10T01:41:31;14.00;99.90
25716;DHT22;13573;50.936;4.328;2022-07-10T01:43:57;13.60;99.90
25716;DHT22;13573;50.936;4.328;2022-07-10T01:51:19;13.80;99.90
25716;DHT22;13573;50.936;4.328;2022-07-10T01:53:46;13.80;99.90
25716;DHT22;13573;50.936;4.328;2022-07-10T01:56:14;13.60;99.90
25716;DHT22;13573;50.936;4.328;2022-07-10T01:58:42;12.50;99.90
25716;DHT22;13573;50.936;4.328;2022-07-10T02:01:10;13.30;99.90
25716;DHT22;13573;50.936;4.328;2022-07-10T02:03:37;13.80;99.90
25716;DHT22;13573;50.936;4.328;2022-07-10T02:06:09;13.70;99.90
25716;DHT22;13573;50.936;4.328;2022-07-10T02:11:03;13.20;99.90
25716;DHT22;13573;50.936;4.328;2022-07-10T02:13:29;13.40;99.90
25716;DHT22;13573;50.936;4.328;2022-07-10T02:15:58;13.90;99.90
25716;DHT22;13573;50.936;4.328;2022-07-10T02:18:25;14.20;99.90
25716;DHT22;13573;50.936;4.328;2022-07-10T02:20:52;13.80;99.90
25716;DHT22;13573;50.936;4.328;2022-07-10T02:23:19;14.20;99.90
25716;DHT22;13573;50.936;4.328;2022-07-10T02:28:12;13.60;99.90
25716;DHT22;13573;50.936;4.328;2022-07-10T02:30:39;14.00;99.90
25716;DHT22;13573;50.936;4.328;2022-07-10T02:33:05;13.80;99.90
25716;DHT22;13573;50.936;4.328;2022-07-10T02:35:32;14.30;99.90
25716;DHT22;13573;50.936;4.328;2022-07-10T02:37:59;13.30;99.90
25716;DHT22;13573;50.936;4.328;2022-07-10T02:40:25;14.00;99.90
25716;DHT22;13573;50.936;4.328;2022-07-10T02:42:52;14.50;99.90
25716;DHT22;13573;50.936;4.328;2022-07-10T02:45:18;14.10;99.90
25716;DHT22;13573;50.936;4.328;2022-07-10T02:47:45;14.00;99.90
25716;DHT22;13573;50.936;4.328;2022-07-10T02:50:12;14.20;99.90
25716;DHT22;13573;50.936;4.328;2022-07-10T02:55:06;14.30;99.90
25716;DHT22;13573;50.936;4.328;2022-07-10T02:57:32;13.70;99.90
25716;DHT22;13573;50.936;4.328;2022-07-10T02:59:59;14.00;99.90
25716;DHT22;13573;50.936;4.328;2022-07-10T03:02:26;13.70;99.90
25716;DHT22;13573;50.936;4.328;2022-07-10T03:04:52;12.50;99.90
25716;DHT22;13573;50.936;4.328;2022-07-10T03:09:46;12.50;99.90
25716;DHT22;13573;50.936;4.328;2022-07-10T03:12:12;13.60;99.90
25716;DHT22;13573;50.936;4.328;2022-07-10T03:14:39;15.00;99.90
25716;DHT22;13573;50.936;4.328;2022-07-10T03:17:05;13.50;99.90
25716;DHT22;13573;50.936;4.328;2022-07-10T03:19:32;13.60;99.90
25716;DHT22;13573;50.936;4.328;2022-07-10T03:22:00;13.20;99.90
25716;DHT22;13573;50.936;4.328;2022-07-10T03:24:26;13.40;99.90
25716;DHT22;13573;50.936;4.328;2022-07-10T03:26:53;14.30;99.90
25716;DHT22;13573;50.936;4.328;2022-07-10T03:29:19;13.80;99.90
25716;DHT22;13573;50.936;4.328;2022-07-10T03:31:46;12.70;99.90
25716;DHT22;13573;50.936;4.328;2022-07-10T03:34:13;13.30;99.90
25716;DHT22;13573;50.936;4.328;2022-07-10T03:36:39;14.40;99.90
25716;DHT22;13573;50.936;4.328;2022-07-10T03:39:06;12.20;99.90
25716;DHT22;13573;50.936;4.328;2022-07-10T03:41:32;13.60;99.90
25716;DHT22;13573;50.936;4.328;2022-07-10T03:43:59;13.60;99.90
25716;DHT22;13573;50.936;4.328;2022-07-10T03:46:26;13.40;99.90
25716;DHT22;13573;50.936;4.328;2022-07-10T03:51:19;14.70;99.90
25716;DHT22;13573;50.936;4.328;2022-07-10T03:53:46;13.40;99.90
25716;DHT22;13573;50.936;4.328;2022-07-10T03:58:42;13.50;99.90
25716;DHT22;13573;50.936;4.328;2022-07-10T04:03:36;13.60;99.90
25716;DHT22;13573;50.936;4.328;2022-07-10T04:06:02;13.50;99.90
25716;DHT22;13573;50.936;4.328;2022-07-10T04:08:29;13.10;99.90
25716;DHT22;13573;50.936;4.328;2022-07-10T04:10:56;13.60;99.90
25716;DHT22;13573;50.936;4.328;2022-07-10T04:13:22;14.10;99.90
25716;DHT22;13573;50.936;4.328;2022-07-10T04:15:49;13.10;99.90
25716;DHT22;13573;50.936;4.328;2022-07-10T04:18:16;13.10;99.90
25716;DHT22;13573;50.936;4.328;2022-07-10T04:23:11;13.30;99.90
25716;DHT22;13573;50.936;4.328;2022-07-10T04:25:38;13.40;99.90
25716;DHT22;13573;50.936;4.328;2022-07-10T04:28:05;13.60;99.90
25716;DHT22;13573;50.936;4.328;2022-07-10T04:30:32;13.70;99.90
25716;DHT22;13573;50.936;4.328;2022-07-10T04:32:58;13.60;99.90
25716;DHT22;13573;50.936;4.328;2022-07-10T04:35:25;15.30;99.90
25716;DHT22;13573;50.936;4.328;2022-07-10T04:37:51;13.80;99.90
25716;DHT22;13573;50.936;4.328;2022-07-10T04:40:18;14.10;99.90
25716;DHT22;13573;50.936;4.328;2022-07-10T04:45:11;14.50;99.90
25716;DHT22;13573;50.936;4.328;2022-07-10T04:47:38;14.30;99.90
25716;DHT22;13573;50.936;4.328;2022-07-10T04:50:05;15.00;99.90
25716;DHT22;13573;50.936;4.328;2022-07-10T04:52:32;13.90;99.90
25716;DHT22;13573;50.936;4.328;2022-07-10T04:54:59;14.90;99.90
25716;DHT22;13573;50.936;4.328;2022-07-10T04:57:26;14.60;99.90
25716;DHT22;13573;50.936;4.328;2022-07-10T04:59:52;16.00;99.90
25716;DHT22;13573;50.936;4.328;2022-07-10T05:02:19;16.30;99.90
25716;DHT22;13573;50.936;4.328;2022-07-10T05:04:46;16.90;99.90
25716;DHT22;13573;50.936;4.328;2022-07-10T05:07:12;16.70;99.90
25716;DHT22;13573;50.936;4.328;2022-07-10T05:09:40;17.00;99.90
25716;DHT22;13573;50.936;4.328;2022-07-10T05:12:07;17.60;99.90
25716;DHT22;13573;50.936;4.328;2022-07-10T05:14:34;17.70;99.90
25716;DHT22;13573;50.936;4.328;2022-07-10T05:17:01;17.80;99.90
25716;DHT22;13573;50.936;4.328;2022-07-10T05:19:28;18.30;99.90
25716;DHT22;13573;50.936;4.328;2022-07-10T05:21:55;18.70;99.90
25716;DHT22;13573;50.936;4.328;2022-07-10T05:24:22;19.00;99.90
25716;DHT22;13573;50.936;4.328;2022-07-10T05:26:48;18.80;99.90
25716;DHT22;13573;50.936;4.328;2022-07-10T05:29:15;18.60;99.90
25716;DHT22;13573;50.936;4.328;2022-07-10T05:31:41;18.80;99.90
25716;DHT22;13573;50.936;4.328;2022-07-10T05:34:10;19.40;99.90
25716;DHT22;13573;50.936;4.328;2022-07-10T05:36:36;19.50;99.90
25716;DHT22;13573;50.936;4.328;2022-07-10T05:39:03;19.30;99.90
25716;DHT22;13573;50.936;4.328;2022-07-10T05:41:30;19.50;99.90
25716;DHT22;13573;50.936;4.328;2022-07-10T05:43:59;20.10;99.90
25716;DHT22;13573;50.936;4.328;2022-07-10T05:46:26;20.50;99.90
25716;DHT22;13573;50.936;4.328;2022-07-10T05:48:53;20.60;99.90
25716;DHT22;13573;50.936;4.328;2022-07-10T05:51:21;18.90;99.90
25716;DHT22;13573;50.936;4.328;2022-07-10T05:53:48;19.80;99.90
25716;DHT22;13573;50.936;4.328;2022-07-10T05:58:42;19.60;99.90
25716;DHT22;13573;50.936;4.328;2022-07-10T06:01:08;18.70;99.90
25716;DHT22;13573;50.936;4.328;2022-07-10T06:03:35;18.70;99.90
25716;DHT22;13573;50.936;4.328;2022-07-10T06:06:02;19.00;99.90
25716;DHT22;13573;50.936;4.328;2022-07-10T06:08:28;18.60;99.90
25716;DHT22;13573;50.936;4.328;2022-07-10T06:10:56;18.30;99.90
25716;DHT22;13573;50.936;4.328;2022-07-10T06:13:23;19.00;99.90
25716;DHT22;13573;50.936;4.328;2022-07-10T06:15:50;19.30;99.90
25716;DHT22;13573;50.936;4.328;2022-07-10T06:18:16;18.60;99.90
25716;DHT22;13573;50.936;4.328;2022-07-10T06:20:43;18.30;99.90
25716;DHT22;13573;50.936;4.328;2022-07-10T06:23:09;18.90;99.90
25716;DHT22;13573;50.936;4.328;2022-07-10T06:25:36;18.20;99.90
25716;DHT22;13573;50.936;4.328;2022-07-10T06:28:03;18.40;99.90
25716;DHT22;13573;50.936;4.328;2022-07-10T06:30:30;18.90;99.90
25716;DHT22;13573;50.936;4.328;2022-07-10T06:32:56;19.00;99.90
25716;DHT22;13573;50.936;4.328;2022-07-10T06:35:23;18.50;99.90
25716;DHT22;13573;50.936;4.328;2022-07-10T06:37:49;18.90;99.90
25716;DHT22;13573;50.936;4.328;2022-07-10T06:40:17;18.60;99.90
25716;DHT22;13573;50.936;4.328;2022-07-10T06:45:12;19.10;99.90
25716;DHT22;13573;50.936;4.328;2022-07-10T06:47:40;18.90;99.90
25716;DHT22;13573;50.936;4.328;2022-07-10T06:50:13;19.40;99.90
25716;DHT22;13573;50.936;4.328;2022-07-10T06:52:40;18.80;99.90
25716;DHT22;13573;50.936;4.328;2022-07-10T06:55:09;19.20;99.90
25716;DHT22;13573;50.936;4.328;2022-07-10T06:57:38;18.60;99.90
25716;DHT22;13573;50.936;4.328;2022-07-10T07:00:06;18.80;99.90
25716;DHT22;13573;50.936;4.328;2022-07-10T07:05:00;19.60;99.90
25716;DHT22;13573;50.936;4.328;2022-07-10T07:07:27;19.40;99.90
25716;DHT22;13573;50.936;4.328;2022-07-10T07:09:54;19.30;99.90
25716;DHT22;13573;50.936;4.328;2022-07-10T07:12:20;19.70;99.90
25716;DHT22;13573;50.936;4.328;2022-07-10T07:14:47;19.90;99.90
25716;DHT22;13573;50.936;4.328;2022-07-10T07:17:14;19.70;99.90
25716;DHT22;13573;50.936;4.328;2022-07-10T07:19:42;20.10;99.90
25716;DHT22;13573;50.936;4.328;2022-07-10T07:22:15;20.20;99.90
25716;DHT22;13573;50.936;4.328;2022-07-10T07:24:47;20.00;99.90
25716;DHT22;13573;50.936;4.328;2022-07-10T07:27:14;19.80;99.90
25716;DHT22;13573;50.936;4.328;2022-07-10T07:29:40;20.00;99.90
25716;DHT22;13573;50.936;4.328;2022-07-10T07:32:07;20.50;99.90
25716;DHT22;13573;50.936;4.328;2022-07-10T07:34:34;20.80;99.90
25716;DHT22;13573;50.936;4.328;2022-07-10T07:37:00;20.10;99.90
25716;DHT22;13573;50.936;4.328;2022-07-10T07:39:27;21.30;99.90
25716;DHT22;13573;50.936;4.328;2022-07-10T07:41:54;21.70;99.90
25716;DHT22;13573;50.936;4.328;2022-07-10T07:44:20;21.50;99.90
25716;DHT22;13573;50.936;4.328;2022-07-10T07:46:48;21.90;99.90
25716;DHT22;13573;50.936;4.328;2022-07-10T07:49:14;22.10;99.90
25716;DHT22;13573;50.936;4.328;2022-07-10T07:51:41;22.00;99.90
25716;DHT22;13573;50.936;4.328;2022-07-10T07:54:07;21.90;99.90
25716;DHT22;13573;50.936;4.328;2022-07-10T07:56:34;22.60;99.90
25716;DHT22;13573;50.936;4.328;2022-07-10T07:59:01;22.60;99.90
25716;DHT22;13573;50.936;4.328;2022-07-10T08:01:28;23.20;99.90
25716;DHT22;13573;50.936;4.328;2022-07-10T08:03:55;23.70;99.90
25716;DHT22;13573;50.936;4.328;2022-07-10T08:06:21;22.90;99.90
25716;DHT22;13573;50.936;4.328;2022-07-10T08:08:48;21.50;99.90
25716;DHT22;13573;50.936;4.328;2022-07-10T08:11:15;23.00;99.90
25716;DHT22;13573;50.936;4.328;2022-07-10T08:13:41;23.00;99.90
25716;DHT22;13573;50.936;4.328;2022-07-10T08:16:09;24.00;99.90
25716;DHT22;13573;50.936;4.328;2022-07-10T08:18:36;24.30;99.90
25716;DHT22;13573;50.936;4.328;2022-07-10T08:21:02;24.50;99.90
25716;DHT22;13573;50.936;4.328;2022-07-10T08:23:29;24.30;99.90
25716;DHT22;13573;50.936;4.328;2022-07-10T08:25:55;25.40;99.90
25716;DHT22;13573;50.936;4.328;2022-07-10T08:28:22;24.80;99.90
25716;DHT22;13573;50.936;4.328;2022-07-10T08:30:49;24.50;99.90
25716;DHT22;13573;50.936;4.328;2022-07-10T08:33:15;24.40;99.90
25716;DHT22;13573;50.936;4.328;2022-07-10T08:35:43;23.30;99.90
25716;DHT22;13573;50.936;4.328;2022-07-10T08:38:09;24.60;99.90
25716;DHT22;13573;50.936;4.328;2022-07-10T08:40:36;25.60;99.90
25716;DHT22;13573;50.936;4.328;2022-07-10T08:43:03;23.80;99.90
25716;DHT22;13573;50.936;4.328;2022-07-10T08:45:32;24.80;99.90
25716;DHT22;13573;50.936;4.328;2022-07-10T08:48:02;25.20;99.90
25716;DHT22;13573;50.936;4.328;2022-07-10T08:50:33;24.40;99.90
25716;DHT22;13573;50.936;4.328;2022-07-10T08:53:09;26.70;99.90
25716;DHT22;13573;50.936;4.328;2022-07-10T08:55:37;25.70;99.90
25716;DHT22;13573;50.936;4.328;2022-07-10T08:58:05;27.50;99.90
25716;DHT22;13573;50.936;4.328;2022-07-10T09:00:34;27.40;99.90
25716;DHT22;13573;50.936;4.328;2022-07-10T09:03:00;28.20;99.90
25716;DHT22;13573;50.936;4.328;2022-07-10T09:05:27;27.10;99.90
25716;DHT22;13573;50.936;4.328;2022-07-10T09:07:54;28.30;99.90
25716;DHT22;13573;50.936;4.328;2022-07-10T09:10:24;28.60;99.90
25716;DHT22;13573;50.936;4.328;2022-07-10T09:12:55;28.40;99.90
25716;DHT22;13573;50.936;4.328;2022-07-10T09:15:25;28.40;99.90
25716;DHT22;13573;50.936;4.328;2022-07-10T09:17:54;27.30;99.90
25716;DHT22;13573;50.936;4.328;2022-07-10T09:20:27;28.20;99.90
25716;DHT22;13573;50.936;4.328;2022-07-10T09:22:53;28.00;99.90
25716;DHT22;13573;50.936;4.328;2022-07-10T09:25:20;28.60;99.90
25716;DHT22;13573;50.936;4.328;2022-07-10T09:27:52;29.40;99.60
25716;DHT22;13573;50.936;4.328;2022-07-10T09:30:31;28.80;99.90
25716;DHT22;13573;50.936;4.328;2022-07-10T09:35:37;29.10;99.00
25716;DHT22;13573;50.936;4.328;2022-07-10T09:38:09;27.70;99.90
25716;DHT22;13573;50.936;4.328;2022-07-10T09:40:37;27.90;99.90
25716;DHT22;13573;50.936;4.328;2022-07-10T09:43:04;28.30;99.90
25716;DHT22;13573;50.936;4.328;2022-07-10T09:45:30;27.60;99.90
25716;DHT22;13573;50.936;4.328;2022-07-10T09:47:59;28.60;99.90
25716;DHT22;13573;50.936;4.328;2022-07-10T09:50:31;29.00;99.90
25716;DHT22;13573;50.936;4.328;2022-07-10T09:53:01;27.70;99.90
25716;DHT22;13573;50.936;4.328;2022-07-10T09:55:31;27.30;99.90
25716;DHT22;13573;50.936;4.328;2022-07-10T09:58:02;28.20;99.90
25716;DHT22;13573;50.936;4.328;2022-07-10T10:00:31;28.20;99.90
25716;DHT22;13573;50.936;4.328;2022-07-10T10:03:00;28.70;99.90
25716;DHT22;13573;50.936;4.328;2022-07-10T10:05:45;28.60;99.90
25716;DHT22;13573;50.936;4.328;2022-07-10T10:08:32;27.60;99.90
25716;DHT22;13573;50.936;4.328;2022-07-10T10:11:01;26.80;99.90
25716;DHT22;13573;50.936;4.328;2022-07-10T10:13:29;28.80;99.90
25716;DHT22;13573;50.936;4.328;2022-07-10T10:15:57;26.90;99.90
25716;DHT22;13573;50.936;4.328;2022-07-10T10:18:25;27.60;99.90
25716;DHT22;13573;50.936;4.328;2022-07-10T10:20:54;26.60;99.90
25716;DHT22;13573;50.936;4.328;2022-07-10T10:23:23;28.60;98.50
25716;DHT22;13573;50.936;4.328;2022-07-10T10:25:52;28.50;98.90
25716;DHT22;13573;50.936;4.328;2022-07-10T10:28:21;29.30;99.90
25716;DHT22;13573;50.936;4.328;2022-07-10T10:30:51;27.10;99.90
25716;DHT22;13573;50.936;4.328;2022-07-10T10:33:45;28.20;98.90
25716;DHT22;13573;50.936;4.328;2022-07-10T10:36:15;28.40;99.90
25716;DHT22;13573;50.936;4.328;2022-07-10T10:39:03;27.70;99.90
25716;DHT22;13573;50.936;4.328;2022-07-10T10:41:39;27.60;99.90
25716;DHT22;13573;50.936;4.328;2022-07-10T10:44:23;27.80;99.90
25716;DHT22;13573;50.936;4.328;2022-07-10T10:46:58;27.00;99.90
25716;DHT22;13573;50.936;4.328;2022-07-10T10:52:10;27.20;99.90
25716;DHT22;13573;50.936;4.328;2022-07-10T10:57:18;27.80;99.90
25716;DHT22;13573;50.936;4.328;2022-07-10T10:59:46;26.60;99.90
25716;DHT22;13573;50.936;4.328;2022-07-10T11:02:21;27.50;99.90
25716;DHT22;13573;50.936;4.328;2022-07-10T11:04:50;27.90;99.90
25716;DHT22;13573;50.936;4.328;2022-07-10T11:12:30;28.20;99.30
25716;DHT22;13573;50.936;4.328;2022-07-10T11:14:59;28.10;99.90
25716;DHT22;13573;50.936;4.328;2022-07-10T11:17:28;28.20;99.90
25716;DHT22;13573;50.936;4.328;2022-07-10T11:19:55;29.20;99.90
25716;DHT22;13573;50.936;4.328;2022-07-10T11:22:47;28.00;98.80
25716;DHT22;13573;50.936;4.328;2022-07-10T11:25:20;29.20;99.90
25716;DHT22;13573;50.936;4.328;2022-07-10T11:27:59;28.30;99.90
25716;DHT22;13573;50.936;4.328;2022-07-10T11:30:24;28.40;99.90
25716;DHT22;13573;50.936;4.328;2022-07-10T11:32:51;28.70;98.60
25716;DHT22;13573;50.936;4.328;2022-07-10T11:35:21;28.50;99.90
25716;DHT22;13573;50.936;4.328;2022-07-10T11:37:51;28.90;98.40
25716;DHT22;13573;50.936;4.328;2022-07-10T11:40:19;29.60;97.50
25716;DHT22;13573;50.936;4.328;2022-07-10T11:42:53;29.80;99.90
25716;DHT22;13573;50.936;4.328;2022-07-10T11:45:22;29.80;97.50
25716;DHT22;13573;50.936;4.328;2022-07-10T11:47:49;29.70;99.70
25716;DHT22;13573;50.936;4.328;2022-07-10T11:50:16;29.80;97.30
25716;DHT22;13573;50.936;4.328;2022-07-10T11:52:45;29.90;96.80
25716;DHT22;13573;50.936;4.328;2022-07-10T11:55:17;30.20;96.70
25716;DHT22;13573;50.936;4.328;2022-07-10T11:57:45;29.50;99.40
25716;DHT22;13573;50.936;4.328;2022-07-10T12:00:25;29.70;99.90
25716;DHT22;13573;50.936;4.328;2022-07-10T12:02:53;29.60;99.90
25716;DHT22;13573;50.936;4.328;2022-07-10T12:05:30;29.80;99.00
25716;DHT22;13573;50.936;4.328;2022-07-10T12:07:57;30.70;97.70
25716;DHT22;13573;50.936;4.328;2022-07-10T12:10:27;30.70;98.00
25716;DHT22;13573;50.936;4.328;2022-07-10T12:15:46;30.50;97.40
25716;DHT22;13573;50.936;4.328;2022-07-10T12:18:18;30.60;95.80
25716;DHT22;13573;50.936;4.328;2022-07-10T12:20:48;30.40;98.80
25716;DHT22;13573;50.936;4.328;2022-07-10T12:23:16;30.80;96.20
25716;DHT22;13573;50.936;4.328;2022-07-10T12:25:45;29.00;98.20
25716;DHT22;13573;50.936;4.328;2022-07-10T12:28:14;30.00;98.70
25716;DHT22;13573;50.936;4.328;2022-07-10T12:30:42;29.30;97.80
25716;DHT22;13573;50.936;4.328;2022-07-10T12:33:12;30.10;97.90
25716;DHT22;13573;50.936;4.328;2022-07-10T12:35:51;29.80;98.10
25716;DHT22;13573;50.936;4.328;2022-07-10T12:38:21;30.10;96.10
25716;DHT22;13573;50.936;4.328;2022-07-10T12:40:49;30.30;98.10
25716;DHT22;13573;50.936;4.328;2022-07-10T12:43:24;30.70;98.30
25716;DHT22;13573;50.936;4.328;2022-07-10T12:48:31;32.00;94.20
25716;DHT22;13573;50.936;4.328;2022-07-10T12:51:18;31.90;95.80
25716;DHT22;13573;50.936;4.328;2022-07-10T12:53:28;32.20;94.30
25716;DHT22;13573;50.936;4.328;2022-07-10T12:55:54;31.60;94.40
25716;DHT22;13573;50.936;4.328;2022-07-10T12:58:21;31.70;94.40
25716;DHT22;13573;50.936;4.328;2022-07-10T13:00:48;30.90;96.50
25716;DHT22;13573;50.936;4.328;2022-07-10T13:05:44;29.70;96.70
25716;DHT22;13573;50.936;4.328;2022-07-10T13:08:16;30.60;96.70
25716;DHT22;13573;50.936;4.328;2022-07-10T13:10:48;31.20;96.30
25716;DHT22;13573;50.936;4.328;2022-07-10T13:13:14;32.30;95.50
25716;DHT22;13573;50.936;4.328;2022-07-10T13:15:43;31.10;94.50
25716;DHT22;13573;50.936;4.328;2022-07-10T13:18:14;33.30;93.30
25716;DHT22;13573;50.936;4.328;2022-07-10T13:20:44;33.50;92.90
25716;DHT22;13573;50.936;4.328;2022-07-10T13:23:11;34.00;92.50
25716;DHT22;13573;50.936;4.328;2022-07-10T13:28:06;33.20;94.10
25716;DHT22;13573;50.936;4.328;2022-07-10T13:30:34;33.00;94.40
25716;DHT22;13573;50.936;4.328;2022-07-10T13:33:01;35.80;95.40
25716;DHT22;13573;50.936;4.328;2022-07-10T13:35:30;33.20;93.00
25716;DHT22;13573;50.936;4.328;2022-07-10T13:37:59;32.50;94.80
25716;DHT22;13573;50.936;4.328;2022-07-10T13:42:53;31.60;94.50
25716;DHT22;13573;50.936;4.328;2022-07-10T13:45:22;34.40;94.40
25716;DHT22;13573;50.936;4.328;2022-07-10T13:47:51;33.50;93.80
25716;DHT22;13573;50.936;4.328;2022-07-10T13:50:20;32.10;93.80
25716;DHT22;13573;50.936;4.328;2022-07-10T13:52:47;33.40;92.90
25716;DHT22;13573;50.936;4.328;2022-07-10T13:55:14;32.90;94.10
25716;DHT22;13573;50.936;4.328;2022-07-10T13:57:40;31.80;94.50
25716;DHT22;13573;50.936;4.328;2022-07-10T14:00:08;31.20;95.20
25716;DHT22;13573;50.936;4.328;2022-07-10T14:02:35;31.50;95.70
25716;DHT22;13573;50.936;4.328;2022-07-10T14:07:28;32.20;93.00
25716;DHT22;13573;50.936;4.328;2022-07-10T14:09:56;31.40;94.30
25716;DHT22;13573;50.936;4.328;2022-07-10T14:14:50;32.10;92.80
25716;DHT22;13573;50.936;4.328;2022-07-10T14:17:17;31.30;94.80
25716;DHT22;13573;50.936;4.328;2022-07-10T14:19:44;31.90;94.90
25716;DHT22;13573;50.936;4.328;2022-07-10T14:22:10;31.80;95.50
25716;DHT22;13573;50.936;4.328;2022-07-10T14:24:37;31.30;95.50
25716;DHT22;13573;50.936;4.328;2022-07-10T14:27:04;30.80;95.20
25716;DHT22;13573;50.936;4.328;2022-07-10T14:29:32;31.90;93.20
25716;DHT22;13573;50.936;4.328;2022-07-10T14:31:58;32.00;93.50
25716;DHT22;13573;50.936;4.328;2022-07-10T14:34:25;29.90;95.60
25716;DHT22;13573;50.936;4.328;2022-07-10T14:36:54;31.50;93.60
25716;DHT22;13573;50.936;4.328;2022-07-10T14:39:21;31.50;93.80
25716;DHT22;13573;50.936;4.328;2022-07-10T14:41:47;31.00;93.80
25716;DHT22;13573;50.936;4.328;2022-07-10T14:44:14;30.60;95.90
25716;DHT22;13573;50.936;4.328;2022-07-10T14:46:41;28.60;95.90
25716;DHT22;13573;50.936;4.328;2022-07-10T14:49:09;29.30;96.40
25716;DHT22;13573;50.936;4.328;2022-07-10T14:51:36;28.30;96.50
25716;DHT22;13573;50.936;4.328;2022-07-10T14:54:02;28.10;96.80
25716;DHT22;13573;50.936;4.328;2022-07-10T14:56:29;28.90;98.50
25716;DHT22;13573;50.936;4.328;2022-07-10T14:58:56;29.30;97.30
25716;DHT22;13573;50.936;4.328;2022-07-10T15:01:22;29.30;97.50
25716;DHT22;13573;50.936;4.328;2022-07-10T15:03:50;28.80;97.20
25716;DHT22;13573;50.936;4.328;2022-07-10T15:06:16;29.60;97.30
25716;DHT22;13573;50.936;4.328;2022-07-10T15:08:43;29.50;97.10
25716;DHT22;13573;50.936;4.328;2022-07-10T15:11:09;29.30;97.10
25716;DHT22;13573;50.936;4.328;2022-07-10T15:13:36;30.60;98.10
25716;DHT22;13573;50.936;4.328;2022-07-10T15:16:03;29.40;97.20
25716;DHT22;13573;50.936;4.328;2022-07-10T15:18:29;29.50;95.00
25716;DHT22;13573;50.936;4.328;2022-07-10T15:20:56;27.40;97.60
25716;DHT22;13573;50.936;4.328;2022-07-10T15:23:24;28.80;98.60
25716;DHT22;13573;50.936;4.328;2022-07-10T15:25:51;28.60;98.50
25716;DHT22;13573;50.936;4.328;2022-07-10T15:28:18;27.40;97.90
25716;DHT22;13573;50.936;4.328;2022-07-10T15:30:45;30.50;98.70
25716;DHT22;13573;50.936;4.328;2022-07-10T15:33:12;29.00;98.40
25716;DHT22;13573;50.936;4.328;2022-07-10T15:35:38;28.30;98.20
25716;DHT22;13573;50.936;4.328;2022-07-10T15:38:06;27.70;98.10
25716;DHT22;13573;50.936;4.328;2022-07-10T15:40:33;29.10;98.10
25716;DHT22;13573;50.936;4.328;2022-07-10T15:43:00;28.90;98.10
25716;DHT22;13573;50.936;4.328;2022-07-10T15:45:27;29.30;97.90
25716;DHT22;13573;50.936;4.328;2022-07-10T15:50:21;29.00;95.30
25716;DHT22;13573;50.936;4.328;2022-07-10T15:52:47;28.90;97.90
25716;DHT22;13573;50.936;4.328;2022-07-10T15:55:15;29.30;97.70
25716;DHT22;13573;50.936;4.328;2022-07-10T15:57:42;29.80;95.10
25716;DHT22;13573;50.936;4.328;2022-07-10T16:00:10;29.50;94.80
25716;DHT22;13573;50.936;4.328;2022-07-10T16:02:38;28.80;98.00
25716;DHT22;13573;50.936;4.328;2022-07-10T16:05:05;29.20;94.90
25716;DHT22;13573;50.936;4.328;2022-07-10T16:09:59;29.20;95.30
25716;DHT22;13573;50.936;4.328;2022-07-10T16:12:26;28.40;98.40
25716;DHT22;13573;50.936;4.328;2022-07-10T16:14:52;27.90;98.40
25716;DHT22;13573;50.936;4.328;2022-07-10T16:17:20;28.60;98.70
25716;DHT22;13573;50.936;4.328;2022-07-10T16:19:47;28.70;95.70
25716;DHT22;13573;50.936;4.328;2022-07-10T16:22:13;26.80;98.30
25716;DHT22;13573;50.936;4.328;2022-07-10T16:24:40;28.30;95.50
25716;DHT22;13573;50.936;4.328;2022-07-10T16:27:12;27.20;99.10
25716;DHT22;13573;50.936;4.328;2022-07-10T16:29:39;27.80;96.30
25716;DHT22;13573;50.936;4.328;2022-07-10T16:32:06;26.90;99.70
25716;DHT22;13573;50.936;4.328;2022-07-10T16:34:33;26.90;99.80
25716;DHT22;13573;50.936;4.328;2022-07-10T16:37:02;27.00;99.90
25716;DHT22;13573;50.936;4.328;2022-07-10T16:39:28;26.60;97.40
25716;DHT22;13573;50.936;4.328;2022-07-10T16:41:55;26.10;99.90
25716;DHT22;13573;50.936;4.328;2022-07-10T16:44:22;24.90;99.70
25716;DHT22;13573;50.936;4.328;2022-07-10T16:46:50;25.80;99.90
25716;DHT22;13573;50.936;4.328;2022-07-10T16:49:17;26.10;99.90
25716;DHT22;13573;50.936;4.328;2022-07-10T16:51:43;25.80;99.90